sensor_id;sensor_type;location;lat;lon;timestamp;temperature;humidity
3069;DHT22;1545;51.728;8.796;2024-03-17T00:00:16;6.90;90.60
3069;DHT22;1545;51.728;8.796;2024-03-17T00:02:44;6.80;90.40
3069;DHT22;1545;51.728;8.796;2024-03-17T00:05:09;6.70;90.40
3069;DHT22;1545;51.728;8.796;2024-03-17T00:07:35;6.50;90.30
3069;DHT22;1545;51.728;8.796;2024-03-17T00:10:00;6.40;91.10
3069;DHT22;1545;51.728;8.796;2024-03-17T00:12:26;6.30;91.40
3069;DHT22;1545;51.728;8.796;2024-03-17T00:14:51;6.00;91.70
3069;DHT22;1545;51.728;8.796;2024-03-17T00:17:17;5.70;92.40
3069;DHT22;1545;51.728;8.796;2024-03-17T00:19:42;5.50;93.20
3069;DHT22;1545;51.728;8.796;2024-03-17T00:22:08;5.30;93.90
3069;DHT22;1545;51.728;8.796;2024-03-17T00:24:38;5.00;93.90
3069;DHT22;1545;51.728;8.796;2024-03-17T00:27:04;4.90;94.40
3069;DHT22;1545;51.728;8.796;2024-03-17T00:29:30;4.80;95.20
3069;DHT22;1545;51.728;8.796;2024-03-17T00:31:55;4.70;95.50
3069;DHT22;1545;51.728;8.796;2024-03-17T00:34:21;4.60;95.50
3069;DHT22;1545;51.728;8.796;2024-03-17T00:36:47;4.60;95.90
3069;DHT22;1545;51.728;8.796;2024-03-17T00:39:13;4.60;96.10
3069;DHT22;1545;51.728;8.796;2024-03-17T00:41:40;4.40;95.90
3069;DHT22;1545;51.728;8.796;2024-03-17T00:44:05;4.40;96.30
3069;DHT22;1545;51.728;8.796;2024-03-17T00:46:31;4.50;97.20
3069;DHT22;1545;51.728;8.796;2024-03-17T00:48:58;4.60;97.10
3069;DHT22;1545;51.728;8.796;2024-03-17T00:51:23;4.60;97.30
3069;DHT22;1545;51.728;8.796;2024-03-17T00:53:49;4.40;97.00
3069;DHT22;1545;51.728;8.796;2024-03-17T00:56:14;4.20;96.80
3069;DHT22;1545;51.728;8.796;2024-03-17T00:58:40;4.10;97.20
3069;DHT22;1545;51.728;8.796;2024-03-17T01:01:06;4.00;97.60
3069;DHT22;1545;51.728;8.796;2024-03-17T01:03:32;4.00;98.10
3069;DHT22;1545;51.728;8.796;2024-03-17T01:05:57;4.00;98.40
3069;DHT22;1545;51.728;8.796;2024-03-17T01:08:23;4.00;98.60
3069;DHT22;1545;51.728;8.796;2024-03-17T01:10:49;4.10;98.80
3069;DHT22;1545;51.728;8.796;2024-03-17T01:13:18;4.20;98.80
3069;DHT22;1545;51.728;8.796;2024-03-17T01:15:44;4.20;98.60
3069;DHT22;1545;51.728;8.796;2024-03-17T01:18:09;4.10;98.60
3069;DHT22;1545;51.728;8.796;2024-03-17T01:20:35;4.10;98.60
3069;DHT22;1545;51.728;8.796;2024-03-17T01:23:02;4.00;98.50
3069;DHT22;1545;51.728;8.796;2024-03-17T01:25:28;3.90;98.30
3069;DHT22;1545;51.728;8.796;2024-03-17T01:27:55;3.80;98.20
3069;DHT22;1545;51.728;8.796;2024-03-17T01:30:20;3.80;98.20
3069;DHT22;1545;51.728;8.796;2024-03-17T01:32:46;3.70;98.40
3069;DHT22;1545;51.728;8.796;2024-03-17T01:35:11;3.70;98.60
3069;DHT22;1545;51.728;8.796;2024-03-17T01:37:38;3.70;98.30
3069;DHT22;1545;51.728;8.796;2024-03-17T01:40:03;3.70;98.30
3069;DHT22;1545;51.728;8.796;2024-03-17T01:42:39;3.70;98.30
3069;DHT22;1545;51.728;8.796;2024-03-17T01:45:32;3.70;98.60
3069;DHT22;1545;51.728;8.796;2024-03-17T01:48:00;3.60;98.70
3069;DHT22;1545;51.728;8.796;2024-03-17T01:50:32;3.50;98.80
3069;DHT22;1545;51.728;8.796;2024-03-17T01:53:02;3.50;98.80
3069;DHT22;1545;51.728;8.796;2024-03-17T01:55:30;3.40;98.80
3069;DHT22;1545;51.728;8.796;2024-03-17T01:57:56;3.40;98.80
3069;DHT22;1545;51.728;8.796;2024-03-17T02:00:22;3.50;98.80
3069;DHT22;1545;51.728;8.796;2024-03-17T02:02:48;3.50;98.80
3069;DHT22;1545;51.728;8.796;2024-03-17T02:05:14;3.50;98.80
3069;DHT22;1545;51.728;8.796;2024-03-17T02:07:39;3.60;98.80
3069;DHT22;1545;51.728;8.796;2024-03-17T02:10:06;3.60;98.80
3069;DHT22;1545;51.728;8.796;2024-03-17T02:12:34;3.50;98.50
3069;DHT22;1545;51.728;8.796;2024-03-17T02:15:00;3.30;98.40
3069;DHT22;1545;51.728;8.796;2024-03-17T02:17:25;3.20;98.80
3069;DHT22;1545;51.728;8.796;2024-03-17T02:19:52;3.10;98.80
3069;DHT22;1545;51.728;8.796;2024-03-17T02:22:18;3.10;98.80
3069;DHT22;1545;51.728;8.796;2024-03-17T02:24:44;3.10;98.80
3069;DHT22;1545;51.728;8.796;2024-03-17T02:27:10;3.10;98.80
3069;DHT22;1545;51.728;8.796;2024-03-17T02:29:36;3.20;98.80
3069;DHT22;1545;51.728;8.796;2024-03-17T02:32:05;3.10;98.80
3069;DHT22;1545;51.728;8.796;2024-03-17T02:34:36;3.10;98.80
3069;DHT22;1545;51.728;8.796;2024-03-17T02:37:03;3.00;98.80
3069;DHT22;1545;51.728;8.796;2024-03-17T02:39:30;3.10;98.80
3069;DHT22;1545;51.728;8.796;2024-03-17T02:42:06;3.00;98.80
3069;DHT22;1545;51.728;8.796;2024-03-17T02:44:32;3.10;98.80
3069;DHT22;1545;51.728;8.796;2024-03-17T02:47:02;3.20;98.80
3069;DHT22;1545;51.728;8.796;2024-03-17T02:49:29;3.30;98.80
3069;DHT22;1545;51.728;8.796;2024-03-17T02:52:08;3.40;98.80
3069;DHT22;1545;51.728;8.796;2024-03-17T02:54:37;3.50;98.60
3069;DHT22;1545;51.728;8.796;2024-03-17T02:57:04;3.40;98.10
3069;DHT22;1545;51.728;8.796;2024-03-17T02:59:30;3.40;97.60
3069;DHT22;1545;51.728;8.796;2024-03-17T03:01:56;3.40;97.30
3069;DHT22;1545;51.728;8.796;2024-03-17T03:04:22;3.40;97.20
3069;DHT22;1545;51.728;8.796;2024-03-17T03:06:47;3.40;96.90
3069;DHT22;1545;51.728;8.796;2024-03-17T03:09:13;3.40;96.90
3069;DHT22;1545;51.728;8.796;2024-03-17T03:11:40;3.50;96.90
3069;DHT22;1545;51.728;8.796;2024-03-17T03:14:06;3.50;96.60
3069;DHT22;1545;51.728;8.796;2024-03-17T03:16:32;3.40;96.80
3069;DHT22;1545;51.728;8.796;2024-03-17T03:18:58;3.40;96.70
3069;DHT22;1545;51.728;8.796;2024-03-17T03:21:24;3.30;96.90
3069;DHT22;1545;51.728;8.796;2024-03-17T03:23:49;3.30;97.20
3069;DHT22;1545;51.728;8.796;2024-03-17T03:26:15;3.20;97.60
3069;DHT22;1545;51.728;8.796;2024-03-17T03:28:40;3.20;97.90
3069;DHT22;1545;51.728;8.796;2024-03-17T03:31:06;3.20;98.30
3069;DHT22;1545;51.728;8.796;2024-03-17T03:33:35;3.10;98.70
3069;DHT22;1545;51.728;8.796;2024-03-17T03:36:10;3.00;98.80
3069;DHT22;1545;51.728;8.796;2024-03-17T03:38:35;2.90;98.80
3069;DHT22;1545;51.728;8.796;2024-03-17T03:41:15;2.90;98.80
3069;DHT22;1545;51.728;8.796;2024-03-17T03:43:40;2.90;98.80
3069;DHT22;1545;51.728;8.796;2024-03-17T03:46:07;3.10;98.80
3069;DHT22;1545;51.728;8.796;2024-03-17T03:48:33;3.20;98.80
3069;DHT22;1545;51.728;8.796;2024-03-17T03:51:05;3.30;98.80
3069;DHT22;1545;51.728;8.796;2024-03-17T03:53:32;3.40;98.80
3069;DHT22;1545;51.728;8.796;2024-03-17T03:55:58;3.40;98.80
3069;DHT22;1545;51.728;8.796;2024-03-17T03:58:24;3.40;98.80
3069;DHT22;1545;51.728;8.796;2024-03-17T04:00:50;3.50;98.80
3069;DHT22;1545;51.728;8.796;2024-03-17T04:03:15;3.50;98.80
3069;DHT22;1545;51.728;8.796;2024-03-17T04:05:41;3.50;98.80
3069;DHT22;1545;51.728;8.796;2024-03-17T04:08:06;3.50;98.80
3069;DHT22;1545;51.728;8.796;2024-03-17T04:10:33;3.50;98.80
3069;DHT22;1545;51.728;8.796;2024-03-17T04:12:59;3.50;98.80
3069;DHT22;1545;51.728;8.796;2024-03-17T04:15:24;3.50;98.80
3069;DHT22;1545;51.728;8.796;2024-03-17T04:17:49;3.50;98.80
3069;DHT22;1545;51.728;8.796;2024-03-17T04:20:15;3.50;98.80
3069;DHT22;1545;51.728;8.796;2024-03-17T04:22:41;3.50;98.80
3069;DHT22;1545;51.728;8.796;2024-03-17T04:25:08;3.40;98.80
3069;DHT22;1545;51.728;8.796;2024-03-17T04:27:34;3.50;98.80
3069;DHT22;1545;51.728;8.796;2024-03-17T04:30:00;3.50;98.80
3069;DHT22;1545;51.728;8.796;2024-03-17T04:32:26;3.50;98.80
3069;DHT22;1545;51.728;8.796;2024-03-17T04:34:56;3.30;98.80
3069;DHT22;1545;51.728;8.796;2024-03-17T04:37:21;3.30;98.80
3069;DHT22;1545;51.728;8.796;2024-03-17T04:39:47;3.30;98.80
3069;DHT22;1545;51.728;8.796;2024-03-17T04:42:15;3.30;98.80
3069;DHT22;1545;51.728;8.796;2024-03-17T04:44:41;3.30;98.80
3069;DHT22;1545;51.728;8.796;2024-03-17T04:47:07;3.30;98.80
3069;DHT22;1545;51.728;8.796;2024-03-17T04:49:37;3.40;98.80
3069;DHT22;1545;51.728;8.796;2024-03-17T04:52:03;3.30;98.80
3069;DHT22;1545;51.728;8.796;2024-03-17T04:54:30;3.30;98.80
3069;DHT22;1545;51.728;8.796;2024-03-17T04:56:56;3.30;98.80
3069;DHT22;1545;51.728;8.796;2024-03-17T04:59:21;3.30;98.80
3069;DHT22;1545;51.728;8.796;2024-03-17T05:01:47;3.30;98.80
3069;DHT22;1545;51.728;8.796;2024-03-17T05:04:13;3.40;98.80
3069;DHT22;1545;51.728;8.796;2024-03-17T05:06:39;3.40;98.80
3069;DHT22;1545;51.728;8.796;2024-03-17T05:09:07;3.40;98.80
3069;DHT22;1545;51.728;8.796;2024-03-17T05:11:32;3.40;98.80
3069;DHT22;1545;51.728;8.796;2024-03-17T05:14:00;3.50;98.80
3069;DHT22;1545;51.728;8.796;2024-03-17T05:16:26;3.50;98.80
3069;DHT22;1545;51.728;8.796;2024-03-17T05:18:53;3.50;98.80
3069;DHT22;1545;51.728;8.796;2024-03-17T05:21:19;3.40;98.80
3069;DHT22;1545;51.728;8.796;2024-03-17T05:23:44;3.40;98.80
3069;DHT22;1545;51.728;8.796;2024-03-17T05:26:10;3.30;98.80
3069;DHT22;1545;51.728;8.796;2024-03-17T05:28:35;3.30;98.80
3069;DHT22;1545;51.728;8.796;2024-03-17T05:31:01;3.30;98.80
3069;DHT22;1545;51.728;8.796;2024-03-17T05:33:26;3.30;98.80
3069;DHT22;1545;51.728;8.796;2024-03-17T05:35:56;3.40;98.80
3069;DHT22;1545;51.728;8.796;2024-03-17T05:38:26;3.40;98.80
3069;DHT22;1545;51.728;8.796;2024-03-17T05:41:03;3.40;98.80
3069;DHT22;1545;51.728;8.796;2024-03-17T05:43:30;3.40;98.80
3069;DHT22;1545;51.728;8.796;2024-03-17T05:46:00;3.40;98.80
3069;DHT22;1545;51.728;8.796;2024-03-17T05:48:29;3.30;98.80
3069;DHT22;1545;51.728;8.796;2024-03-17T05:50:55;3.50;98.80
3069;DHT22;1545;51.728;8.796;2024-03-17T05:53:21;3.60;98.80
3069;DHT22;1545;51.728;8.796;2024-03-17T05:55:49;3.70;98.80
3069;DHT22;1545;51.728;8.796;2024-03-17T05:58:14;3.80;98.80
3069;DHT22;1545;51.728;8.796;2024-03-17T06:00:40;3.90;98.80
3069;DHT22;1545;51.728;8.796;2024-03-17T06:03:06;4.00;98.80
3069;DHT22;1545;51.728;8.796;2024-03-17T06:05:35;4.20;98.70
3069;DHT22;1545;51.728;8.796;2024-03-17T06:08:03;4.20;98.10
3069;DHT22;1545;51.728;8.796;2024-03-17T06:10:30;4.30;97.50
3069;DHT22;1545;51.728;8.796;2024-03-17T06:12:56;4.40;97.10
3069;DHT22;1545;51.728;8.796;2024-03-17T06:15:23;4.50;96.60
3069;DHT22;1545;51.728;8.796;2024-03-17T06:17:52;4.60;96.30
3069;DHT22;1545;51.728;8.796;2024-03-17T06:20:21;4.70;95.90
3069;DHT22;1545;51.728;8.796;2024-03-17T06:22:48;4.80;95.60
3069;DHT22;1545;51.728;8.796;2024-03-17T06:25:14;4.90;95.50
3069;DHT22;1545;51.728;8.796;2024-03-17T06:27:40;5.00;95.00
3069;DHT22;1545;51.728;8.796;2024-03-17T06:30:06;5.10;94.40
3069;DHT22;1545;51.728;8.796;2024-03-17T06:32:32;5.20;94.10
3069;DHT22;1545;51.728;8.796;2024-03-17T06:35:01;5.40;93.90
3069;DHT22;1545;51.728;8.796;2024-03-17T06:37:27;5.60;93.80
3069;DHT22;1545;51.728;8.796;2024-03-17T06:39:52;5.70;93.60
3069;DHT22;1545;51.728;8.796;2024-03-17T06:42:19;5.90;93.10
3069;DHT22;1545;51.728;8.796;2024-03-17T06:44:44;6.10;92.90
3069;DHT22;1545;51.728;8.796;2024-03-17T06:47:09;6.20;92.30
3069;DHT22;1545;51.728;8.796;2024-03-17T06:49:35;6.30;91.80
3069;DHT22;1545;51.728;8.796;2024-03-17T06:52:00;6.50;91.30
3069;DHT22;1545;51.728;8.796;2024-03-17T06:54:26;6.60;90.80
3069;DHT22;1545;51.728;8.796;2024-03-17T06:56:52;6.70;90.50
3069;DHT22;1545;51.728;8.796;2024-03-17T06:59:17;6.70;90.00
3069;DHT22;1545;51.728;8.796;2024-03-17T07:01:43;6.90;89.40
3069;DHT22;1545;51.728;8.796;2024-03-17T07:04:10;6.90;89.10
3069;DHT22;1545;51.728;8.796;2024-03-17T07:06:36;7.00;88.80
3069;DHT22;1545;51.728;8.796;2024-03-17T07:09:01;7.00;88.70
3069;DHT22;1545;51.728;8.796;2024-03-17T07:11:27;7.10;88.50
3069;DHT22;1545;51.728;8.796;2024-03-17T07:13:53;7.00;88.40
3069;DHT22;1545;51.728;8.796;2024-03-17T07:16:18;7.00;88.50
3069;DHT22;1545;51.728;8.796;2024-03-17T07:18:44;7.10;88.70
3069;DHT22;1545;51.728;8.796;2024-03-17T07:21:10;7.10;88.50
3069;DHT22;1545;51.728;8.796;2024-03-17T07:23:36;7.10;88.30
3069;DHT22;1545;51.728;8.796;2024-03-17T07:26:02;7.10;88.10
3069;DHT22;1545;51.728;8.796;2024-03-17T07:28:30;7.20;88.00
3069;DHT22;1545;51.728;8.796;2024-03-17T07:30:57;7.30;87.70
3069;DHT22;1545;51.728;8.796;2024-03-17T07:33:23;7.40;87.60
3069;DHT22;1545;51.728;8.796;2024-03-17T07:35:50;7.60;86.90
3069;DHT22;1545;51.728;8.796;2024-03-17T07:38:16;7.70;86.20
3069;DHT22;1545;51.728;8.796;2024-03-17T07:40:42;7.80;85.30
3069;DHT22;1545;51.728;8.796;2024-03-17T07:43:08;7.90;84.90
3069;DHT22;1545;51.728;8.796;2024-03-17T07:45:34;8.00;84.90
3069;DHT22;1545;51.728;8.796;2024-03-17T07:47:59;8.20;84.90
3069;DHT22;1545;51.728;8.796;2024-03-17T07:50:25;8.30;83.60
3069;DHT22;1545;51.728;8.796;2024-03-17T07:52:50;8.40;83.10
3069;DHT22;1545;51.728;8.796;2024-03-17T07:55:16;8.50;82.50
3069;DHT22;1545;51.728;8.796;2024-03-17T07:57:41;8.60;82.10
3069;DHT22;1545;51.728;8.796;2024-03-17T08:00:07;8.60;81.60
3069;DHT22;1545;51.728;8.796;2024-03-17T08:02:44;8.60;81.40
3069;DHT22;1545;51.728;8.796;2024-03-17T08:05:10;8.70;81.70
3069;DHT22;1545;51.728;8.796;2024-03-17T08:07:36;8.80;81.70
3069;DHT22;1545;51.728;8.796;2024-03-17T08:10:01;8.90;81.20
3069;DHT22;1545;51.728;8.796;2024-03-17T08:12:29;9.00;81.10
3069;DHT22;1545;51.728;8.796;2024-03-17T08:14:55;9.10;79.50
3069;DHT22;1545;51.728;8.796;2024-03-17T08:17:20;9.20;80.30
3069;DHT22;1545;51.728;8.796;2024-03-17T08:19:46;9.30;80.90
3069;DHT22;1545;51.728;8.796;2024-03-17T08:22:11;9.40;81.20
3069;DHT22;1545;51.728;8.796;2024-03-17T08:24:36;9.50;80.10
3069;DHT22;1545;51.728;8.796;2024-03-17T08:27:02;9.70;79.60
3069;DHT22;1545;51.728;8.796;2024-03-17T08:29:28;9.90;78.60
3069;DHT22;1545;51.728;8.796;2024-03-17T08:31:53;10.10;77.30
3069;DHT22;1545;51.728;8.796;2024-03-17T08:34:19;10.20;76.10
3069;DHT22;1545;51.728;8.796;2024-03-17T08:36:44;10.30;76.50
3069;DHT22;1545;51.728;8.796;2024-03-17T08:39:10;10.40;76.50
3069;DHT22;1545;51.728;8.796;2024-03-17T08:41:36;10.60;76.30
3069;DHT22;1545;51.728;8.796;2024-03-17T08:44:02;10.80;76.80
3069;DHT22;1545;51.728;8.796;2024-03-17T08:46:27;11.00;76.20
3069;DHT22;1545;51.728;8.796;2024-03-17T08:48:53;11.30;75.40
3069;DHT22;1545;51.728;8.796;2024-03-17T08:51:18;11.50;74.30
3069;DHT22;1545;51.728;8.796;2024-03-17T08:53:44;11.60;73.20
3069;DHT22;1545;51.728;8.796;2024-03-17T08:56:10;11.70;73.70
3069;DHT22;1545;51.728;8.796;2024-03-17T08:58:35;11.80;73.00
3069;DHT22;1545;51.728;8.796;2024-03-17T09:01:05;11.80;73.10
3069;DHT22;1545;51.728;8.796;2024-03-17T09:03:32;12.00;73.60
3069;DHT22;1545;51.728;8.796;2024-03-17T09:05:57;12.10;73.20
3069;DHT22;1545;51.728;8.796;2024-03-17T09:08:24;12.30;73.10
3069;DHT22;1545;51.728;8.796;2024-03-17T09:10:52;12.50;72.30
3069;DHT22;1545;51.728;8.796;2024-03-17T09:13:22;13.00;71.70
3069;DHT22;1545;51.728;8.796;2024-03-17T09:15:58;13.30;69.50
3069;DHT22;1545;51.728;8.796;2024-03-17T09:18:28;13.40;69.00
3069;DHT22;1545;51.728;8.796;2024-03-17T09:21:01;13.30;70.10
3069;DHT22;1545;51.728;8.796;2024-03-17T09:23:28;13.30;70.20
3069;DHT22;1545;51.728;8.796;2024-03-17T09:26:06;13.40;70.10
3069;DHT22;1545;51.728;8.796;2024-03-17T09:28:36;13.40;70.20
3069;DHT22;1545;51.728;8.796;2024-03-17T09:31:02;13.10;70.00
3069;DHT22;1545;51.728;8.796;2024-03-17T09:33:29;12.90;70.00
3069;DHT22;1545;51.728;8.796;2024-03-17T09:36:02;12.70;71.40
3069;DHT22;1545;51.728;8.796;2024-03-17T09:38:29;12.50;71.10
3069;DHT22;1545;51.728;8.796;2024-03-17T09:40:55;12.30;71.20
3069;DHT22;1545;51.728;8.796;2024-03-17T09:43:27;12.20;72.10
3069;DHT22;1545;51.728;8.796;2024-03-17T09:45:53;11.70;73.00
3069;DHT22;1545;51.728;8.796;2024-03-17T09:48:26;11.60;73.10
3069;DHT22;1545;51.728;8.796;2024-03-17T09:51:02;11.50;74.00
3069;DHT22;1545;51.728;8.796;2024-03-17T09:53:32;11.40;74.20
3069;DHT22;1545;51.728;8.796;2024-03-17T09:56:00;11.60;75.10
3069;DHT22;1545;51.728;8.796;2024-03-17T09:58:28;11.90;74.20
3069;DHT22;1545;51.728;8.796;2024-03-17T10:00:54;12.20;73.10
3069;DHT22;1545;51.728;8.796;2024-03-17T10:06:25;12.20;71.10
3069;DHT22;1545;51.728;8.796;2024-03-17T10:08:59;12.00;72.70
3069;DHT22;1545;51.728;8.796;2024-03-17T10:11:35;12.00;71.80
3069;DHT22;1545;51.728;8.796;2024-03-17T10:14:03;12.30;72.50
3069;DHT22;1545;51.728;8.796;2024-03-17T10:16:30;12.30;71.80
3069;DHT22;1545;51.728;8.796;2024-03-17T10:19:13;12.00;72.10
3069;DHT22;1545;51.728;8.796;2024-03-17T10:21:40;12.00;72.70
3069;DHT22;1545;51.728;8.796;2024-03-17T10:26:36;12.50;71.60
3069;DHT22;1545;51.728;8.796;2024-03-17T10:29:03;12.60;70.20
3069;DHT22;1545;51.728;8.796;2024-03-17T10:31:29;12.50;71.50
3069;DHT22;1545;51.728;8.796;2024-03-17T10:34:02;12.50;72.60
3069;DHT22;1545;51.728;8.796;2024-03-17T10:36:27;12.40;70.80
3069;DHT22;1545;51.728;8.796;2024-03-17T10:38:53;12.20;71.40
3069;DHT22;1545;51.728;8.796;2024-03-17T10:41:21;12.10;72.40
3069;DHT22;1545;51.728;8.796;2024-03-17T10:43:47;12.00;73.90
3069;DHT22;1545;51.728;8.796;2024-03-17T10:46:14;11.80;74.20
3069;DHT22;1545;51.728;8.796;2024-03-17T10:48:41;11.80;75.00
3069;DHT22;1545;51.728;8.796;2024-03-17T10:51:16;11.70;74.10
3069;DHT22;1545;51.728;8.796;2024-03-17T10:53:46;11.60;75.70
3069;DHT22;1545;51.728;8.796;2024-03-17T10:56:16;11.90;76.50
3069;DHT22;1545;51.728;8.796;2024-03-17T10:58:44;11.90;74.00
3069;DHT22;1545;51.728;8.796;2024-03-17T11:01:16;11.90;75.10
3069;DHT22;1545;51.728;8.796;2024-03-17T11:03:43;12.10;74.20
3069;DHT22;1545;51.728;8.796;2024-03-17T11:06:12;11.80;73.50
3069;DHT22;1545;51.728;8.796;2024-03-17T11:08:38;11.80;75.90
3069;DHT22;1545;51.728;8.796;2024-03-17T11:11:04;11.80;73.00
3069;DHT22;1545;51.728;8.796;2024-03-17T11:13:31;11.80;73.30
3069;DHT22;1545;51.728;8.796;2024-03-17T11:15:58;11.70;73.50
3069;DHT22;1545;51.728;8.796;2024-03-17T11:21:00;11.80;74.80
3069;DHT22;1545;51.728;8.796;2024-03-17T11:23:32;11.80;77.00
3069;DHT22;1545;51.728;8.796;2024-03-17T11:25:58;11.90;73.80
3069;DHT22;1545;51.728;8.796;2024-03-17T11:31:44;11.90;72.60
3069;DHT22;1545;51.728;8.796;2024-03-17T11:34:34;11.90;73.50
3069;DHT22;1545;51.728;8.796;2024-03-17T11:37:01;12.00;73.10
3069;DHT22;1545;51.728;8.796;2024-03-17T11:39:48;11.90;73.70
3069;DHT22;1545;51.728;8.796;2024-03-17T11:42:25;12.00;75.00
3069;DHT22;1545;51.728;8.796;2024-03-17T11:47:33;12.10;73.20
3069;DHT22;1545;51.728;8.796;2024-03-17T11:50:02;11.90;74.10
3069;DHT22;1545;51.728;8.796;2024-03-17T11:52:28;12.00;74.50
3069;DHT22;1545;51.728;8.796;2024-03-17T11:54:54;12.10;75.70
3069;DHT22;1545;51.728;8.796;2024-03-17T11:57:20;12.30;75.50
3069;DHT22;1545;51.728;8.796;2024-03-17T11:59:48;12.40;75.00
3069;DHT22;1545;51.728;8.796;2024-03-17T12:02:18;12.70;73.90
3069;DHT22;1545;51.728;8.796;2024-03-17T12:04:44;12.70;73.30
3069;DHT22;1545;51.728;8.796;2024-03-17T12:07:14;12.80;74.70
3069;DHT22;1545;51.728;8.796;2024-03-17T12:09:41;12.90;72.10
3069;DHT22;1545;51.728;8.796;2024-03-17T12:12:21;12.90;72.50
3069;DHT22;1545;51.728;8.796;2024-03-17T12:14:48;12.90;70.80
3069;DHT22;1545;51.728;8.796;2024-03-17T12:17:20;12.80;71.00
3069;DHT22;1545;51.728;8.796;2024-03-17T12:19:45;12.80;72.20
3069;DHT22;1545;51.728;8.796;2024-03-17T12:22:18;13.00;71.60
3069;DHT22;1545;51.728;8.796;2024-03-17T12:24:48;13.10;70.90
3069;DHT22;1545;51.728;8.796;2024-03-17T12:27:18;13.00;70.60
3069;DHT22;1545;51.728;8.796;2024-03-17T12:29:44;13.00;70.30
3069;DHT22;1545;51.728;8.796;2024-03-17T12:32:17;12.90;71.60
3069;DHT22;1545;51.728;8.796;2024-03-17T12:34:49;13.20;71.70
3069;DHT22;1545;51.728;8.796;2024-03-17T12:37:18;13.50;70.40
3069;DHT22;1545;51.728;8.796;2024-03-17T12:39:44;13.30;69.20
3069;DHT22;1545;51.728;8.796;2024-03-17T12:42:11;13.40;70.40
3069;DHT22;1545;51.728;8.796;2024-03-17T12:47:14;13.30;67.80
3069;DHT22;1545;51.728;8.796;2024-03-17T12:49:47;13.10;68.60
3069;DHT22;1545;51.728;8.796;2024-03-17T12:52:30;13.20;69.80
3069;DHT22;1545;51.728;8.796;2024-03-17T12:54:58;13.30;68.60
3069;DHT22;1545;51.728;8.796;2024-03-17T12:57:41;13.20;68.60
3069;DHT22;1545;51.728;8.796;2024-03-17T13:00:25;13.20;69.40
3069;DHT22;1545;51.728;8.796;2024-03-17T13:02:57;13.30;69.00
3069;DHT22;1545;51.728;8.796;2024-03-17T13:05:23;13.40;69.80
3069;DHT22;1545;51.728;8.796;2024-03-17T13:07:50;13.60;69.90
3069;DHT22;1545;51.728;8.796;2024-03-17T13:10:17;13.80;69.00
3069;DHT22;1545;51.728;8.796;2024-03-17T13:12:44;13.80;68.40
3069;DHT22;1545;51.728;8.796;2024-03-17T13:15:12;13.80;69.40
3069;DHT22;1545;51.728;8.796;2024-03-17T13:17:38;13.80;69.10
3069;DHT22;1545;51.728;8.796;2024-03-17T13:20:06;13.40;69.10
3069;DHT22;1545;51.728;8.796;2024-03-17T13:22:34;13.20;70.50
3069;DHT22;1545;51.728;8.796;2024-03-17T13:25:00;13.30;69.80
3069;DHT22;1545;51.728;8.796;2024-03-17T13:27:25;13.40;70.40
3069;DHT22;1545;51.728;8.796;2024-03-17T13:29:51;13.50;70.00
3069;DHT22;1545;51.728;8.796;2024-03-17T13:32:16;13.40;70.70
3069;DHT22;1545;51.728;8.796;2024-03-17T13:34:43;13.40;70.70
3069;DHT22;1545;51.728;8.796;2024-03-17T13:37:08;13.50;71.60
3069;DHT22;1545;51.728;8.796;2024-03-17T13:39:34;13.50;71.70
3069;DHT22;1545;51.728;8.796;2024-03-17T13:42:00;13.30;71.40
3069;DHT22;1545;51.728;8.796;2024-03-17T13:44:29;13.40;71.90
3069;DHT22;1545;51.728;8.796;2024-03-17T13:46:55;13.50;73.40
3069;DHT22;1545;51.728;8.796;2024-03-17T13:49:20;13.70;71.40
3069;DHT22;1545;51.728;8.796;2024-03-17T13:51:45;13.60;70.50
3069;DHT22;1545;51.728;8.796;2024-03-17T13:54:11;13.50;70.90
3069;DHT22;1545;51.728;8.796;2024-03-17T13:56:37;13.50;71.50
3069;DHT22;1545;51.728;8.796;2024-03-17T13:59:02;13.50;71.10
3069;DHT22;1545;51.728;8.796;2024-03-17T14:01:27;13.40;71.70
3069;DHT22;1545;51.728;8.796;2024-03-17T14:03:53;13.50;72.40
3069;DHT22;1545;51.728;8.796;2024-03-17T14:06:19;13.40;70.80
3069;DHT22;1545;51.728;8.796;2024-03-17T14:08:45;13.40;70.90
3069;DHT22;1545;51.728;8.796;2024-03-17T14:11:10;13.20;73.70
3069;DHT22;1545;51.728;8.796;2024-03-17T14:13:35;13.20;74.60
3069;DHT22;1545;51.728;8.796;2024-03-17T14:16:01;13.40;73.70
3069;DHT22;1545;51.728;8.796;2024-03-17T14:18:26;13.60;73.70
3069;DHT22;1545;51.728;8.796;2024-03-17T14:20:52;13.80;72.30
3069;DHT22;1545;51.728;8.796;2024-03-17T14:23:17;13.70;72.10
3069;DHT22;1545;51.728;8.796;2024-03-17T14:25:43;13.80;70.80
3069;DHT22;1545;51.728;8.796;2024-03-17T14:28:09;13.60;70.90
3069;DHT22;1545;51.728;8.796;2024-03-17T14:30:35;13.60;72.00
3069;DHT22;1545;51.728;8.796;2024-03-17T14:33:00;13.50;71.90
3069;DHT22;1545;51.728;8.796;2024-03-17T14:35:26;13.40;72.90
3069;DHT22;1545;51.728;8.796;2024-03-17T14:37:55;13.30;73.70
3069;DHT22;1545;51.728;8.796;2024-03-17T14:40:21;13.00;73.40
3069;DHT22;1545;51.728;8.796;2024-03-17T14:42:52;12.90;74.30
3069;DHT22;1545;51.728;8.796;2024-03-17T14:45:18;12.90;75.00
3069;DHT22;1545;51.728;8.796;2024-03-17T14:47:44;13.00;74.30
3069;DHT22;1545;51.728;8.796;2024-03-17T14:50:12;13.00;75.10
3069;DHT22;1545;51.728;8.796;2024-03-17T14:52:39;12.90;74.00
3069;DHT22;1545;51.728;8.796;2024-03-17T14:55:06;12.90;75.60
3069;DHT22;1545;51.728;8.796;2024-03-17T14:57:32;12.70;75.20
3069;DHT22;1545;51.728;8.796;2024-03-17T14:59:58;12.80;76.50
3069;DHT22;1545;51.728;8.796;2024-03-17T15:02:24;12.80;76.40
3069;DHT22;1545;51.728;8.796;2024-03-17T15:04:51;12.70;75.90
3069;DHT22;1545;51.728;8.796;2024-03-17T15:07:17;12.60;75.60
3069;DHT22;1545;51.728;8.796;2024-03-17T15:09:43;12.50;75.20
3069;DHT22;1545;51.728;8.796;2024-03-17T15:12:09;12.50;75.80
3069;DHT22;1545;51.728;8.796;2024-03-17T15:14:35;12.50;75.30
3069;DHT22;1545;51.728;8.796;2024-03-17T15:17:03;12.50;75.90
3069;DHT22;1545;51.728;8.796;2024-03-17T15:19:28;12.50;75.20
3069;DHT22;1545;51.728;8.796;2024-03-17T15:21:54;12.50;75.40
3069;DHT22;1545;51.728;8.796;2024-03-17T15:24:19;12.40;75.20
3069;DHT22;1545;51.728;8.796;2024-03-17T15:26:44;12.50;75.80
3069;DHT22;1545;51.728;8.796;2024-03-17T15:29:11;12.60;76.50
3069;DHT22;1545;51.728;8.796;2024-03-17T15:31:38;12.60;76.50
3069;DHT22;1545;51.728;8.796;2024-03-17T15:34:03;12.50;75.80
3069;DHT22;1545;51.728;8.796;2024-03-17T15:36:29;12.40;76.00
3069;DHT22;1545;51.728;8.796;2024-03-17T15:38:55;12.30;75.90
3069;DHT22;1545;51.728;8.796;2024-03-17T15:41:20;12.30;76.30
3069;DHT22;1545;51.728;8.796;2024-03-17T15:43:46;12.30;76.30
3069;DHT22;1545;51.728;8.796;2024-03-17T15:46:17;12.30;76.30
3069;DHT22;1545;51.728;8.796;2024-03-17T15:48:43;12.30;77.20
3069;DHT22;1545;51.728;8.796;2024-03-17T15:51:09;12.20;77.10
3069;DHT22;1545;51.728;8.796;2024-03-17T15:53:34;12.10;77.10
3069;DHT22;1545;51.728;8.796;2024-03-17T15:56:01;12.10;77.50
3069;DHT22;1545;51.728;8.796;2024-03-17T15:58:28;12.10;77.40
3069;DHT22;1545;51.728;8.796;2024-03-17T16:00:54;12.00;77.60
3069;DHT22;1545;51.728;8.796;2024-03-17T16:03:21;12.00;78.20
3069;DHT22;1545;51.728;8.796;2024-03-17T16:05:51;12.00;77.50
3069;DHT22;1545;51.728;8.796;2024-03-17T16:08:18;12.00;78.00
3069;DHT22;1545;51.728;8.796;2024-03-17T16:10:50;11.90;78.30
3069;DHT22;1545;51.728;8.796;2024-03-17T16:13:16;11.80;78.40
3069;DHT22;1545;51.728;8.796;2024-03-17T16:15:42;11.90;78.80
3069;DHT22;1545;51.728;8.796;2024-03-17T16:18:09;11.80;78.30
3069;DHT22;1545;51.728;8.796;2024-03-17T16:23:18;11.70;78.50
3069;DHT22;1545;51.728;8.796;2024-03-17T16:25:48;11.70;78.70
3069;DHT22;1545;51.728;8.796;2024-03-17T16:28:14;11.60;78.90